sensor_id;sensor_type;location;lat;lon;timestamp;pressure;altitude;pressure_sealevel;temperature;humidity
10145;BME280;5113;41.822;23.564;2022-09-03T00:02:10;-11410.91;;;17.21;100.00
10145;BME280;5113;41.822;23.564;2022-09-03T00:05:24;-11410.19;;;17.19;100.00
10145;BME280;5113;41.822;23.564;2022-09-03T00:08:34;-11404.84;;;16.99;100.00
10145;BME280;5113;41.822;23.564;2022-09-03T00:11:50;-11407.38;;;17.08;100.00
10145;BME280;5113;41.822;23.564;2022-09-03T00:15:01;-11398.50;;;16.76;100.00
10145;BME280;5113;41.822;23.564;2022-09-03T00:18:11;-11399.47;;;16.80;100.00
10145;BME280;5113;41.822;23.564;2022-09-03T00:21:36;-11398.06;;;16.75;100.00
10145;BME280;5113;41.822;23.564;2022-09-03T00:24:44;-11400.31;;;16.83;100.00
10145;BME280;5113;41.822;23.564;2022-09-03T00:27:53;-11398.34;;;16.76;100.00
10145;BME280;5113;41.822;23.564;2022-09-03T00:31:06;-11381.59;;;16.15;100.00
10145;BME280;5113;41.822;23.564;2022-09-03T00:34:21;-11376.22;;;15.96;100.00
10145;BME280;5113;41.822;23.564;2022-09-03T00:37:30;-11381.44;;;16.15;100.00
10145;BME280;5113;41.822;23.564;2022-09-03T00:40:51;-11387.63;;;16.37;100.00
10145;BME280;5113;41.822;23.564;2022-09-03T00:44:17;-11393.56;;;16.59;100.00
10145;BME280;5113;41.822;23.564;2022-09-03T00:47:37;-11391.31;;;16.50;100.00
10145;BME280;5113;41.822;23.564;2022-09-03T00:50:54;-11393.56;;;16.59;100.00
10145;BME280;5113;41.822;23.564;2022-09-03T00:54:12;-11393.00;;;16.57;100.00
10145;BME280;5113;41.822;23.564;2022-09-03T00:57:29;-11388.19;;;16.39;100.00
10145;BME280;5113;41.822;23.564;2022-09-03T01:00:41;-11388.75;;;16.41;100.00
10145;BME280;5113;41.822;23.564;2022-09-03T01:03:53;-11391.03;;;16.49;100.00
10145;BME280;5113;41.822;23.564;2022-09-03T01:07:10;-11385.09;;;16.28;100.00
10145;BME280;5113;41.822;23.564;2022-09-03T01:10:26;-11380.59;;;16.12;100.00
10145;BME280;5113;41.822;23.564;2022-09-03T01:13:40;-11381.44;;;16.15;100.00
10145;BME280;5113;41.822;23.564;2022-09-03T01:16:52;-11382.00;;;16.17;100.00
10145;BME280;5113;41.822;23.564;2022-09-03T01:23:51;-11383.00;;;16.21;100.00
10145;BME280;5113;41.822;23.564;2022-09-03T01:27:19;-11375.25;;;15.93;100.00
10145;BME280;5113;41.822;23.564;2022-09-03T01:30:33;-11379.75;;;16.09;100.00
10145;BME280;5113;41.822;23.564;2022-09-03T01:33:49;-11379.31;;;16.07;100.00
10145;BME280;5113;41.822;23.564;2022-09-03T01:37:05;-11375.81;;;15.95;100.00
10145;BME280;5113;41.822;23.564;2022-09-03T01:40:18;-11375.38;;;15.93;100.00
10145;BME280;5113;41.822;23.564;2022-09-03T01:43:37;-11376.09;;;15.96;100.00
10145;BME280;5113;41.822;23.564;2022-09-03T01:46:56;-11375.66;;;15.94;100.00
10145;BME280;5113;41.822;23.564;2022-09-03T01:50:14;-11375.53;;;15.94;100.00
10145;BME280;5113;41.822;23.564;2022-09-03T01:53:34;-11377.78;;;16.02;100.00
10145;BME280;5113;41.822;23.564;2022-09-03T01:56:55;-11369.59;;;15.72;100.00
10145;BME280;5113;41.822;23.564;2022-09-03T02:00:06;-11370.88;;;15.77;100.00
10145;BME280;5113;41.822;23.564;2022-09-03T02:03:16;-11366.66;;;15.62;100.00
10145;BME280;5113;41.822;23.564;2022-09-03T02:06:22;-11354.38;;;15.17;100.00
10145;BME280;5113;41.822;23.564;2022-09-03T02:09:30;-11356.38;;;15.25;100.00
10145;BME280;5113;41.822;23.564;2022-09-03T02:12:38;-11363.81;;;15.51;100.00
10145;BME280;5113;41.822;23.564;2022-09-03T02:15:49;-11364.41;;;15.53;100.00
10145;BME280;5113;41.822;23.564;2022-09-03T02:19:00;-11361.44;;;15.43;100.00
10145;BME280;5113;41.822;23.564;2022-09-03T02:22:08;-11355.09;;;15.20;100.00
10145;BME280;5113;41.822;23.564;2022-09-03T02:25:15;-11357.63;;;15.29;100.00
10145;BME280;5113;41.822;23.564;2022-09-03T02:28:22;-11367.63;;;15.65;100.00
10145;BME280;5113;41.822;23.564;2022-09-03T02:31:29;-11367.63;;;15.65;100.00
10145;BME280;5113;41.822;23.564;2022-09-03T02:34:37;-11368.34;;;15.68;100.00
10145;BME280;5113;41.822;23.564;2022-09-03T02:37:44;-11365.94;;;15.59;100.00
10145;BME280;5113;41.822;23.564;2022-09-03T02:40:50;-11371.44;;;15.79;100.00
10145;BME280;5113;41.822;23.564;2022-09-03T02:44:01;-11369.47;;;15.72;100.00
10145;BME280;5113;41.822;23.564;2022-09-03T02:47:08;-11371.44;;;15.79;100.00
10145;BME280;5113;41.822;23.564;2022-09-03T02:50:16;-11370.44;;;15.75;100.00
10145;BME280;5113;41.822;23.564;2022-09-03T02:53:23;-11373.56;;;15.87;100.00
10145;BME280;5113;41.822;23.564;2022-09-03T02:56:29;-11373.00;;;15.84;100.00
10145;BME280;5113;41.822;23.564;2022-09-03T02:59:36;-11369.59;;;15.72;100.00
10145;BME280;5113;41.822;23.564;2022-09-03T03:02:43;-11370.72;;;15.76;100.00
10145;BME280;5113;41.822;23.564;2022-09-03T03:05:53;-11373.00;;;15.84;100.00
10145;BME280;5113;41.822;23.564;2022-09-03T03:09:00;-11367.63;;;15.65;100.00
10145;BME280;5113;41.822;23.564;2022-09-03T03:12:09;-11367.91;;;15.66;100.00
10145;BME280;5113;41.822;23.564;2022-09-03T03:15:15;-11366.66;;;15.62;100.00
10145;BME280;5113;41.822;23.564;2022-09-03T03:18:21;-11370.44;;;15.75;100.00
10145;BME280;5113;41.822;23.564;2022-09-03T03:21:29;-11366.50;;;15.61;100.00
10145;BME280;5113;41.822;23.564;2022-09-03T03:24:36;-11368.63;;;15.69;100.00
10145;BME280;5113;41.822;23.564;2022-09-03T03:27:43;-11363.41;;;15.50;100.00
10145;BME280;5113;41.822;23.564;2022-09-03T03:30:49;-11363.69;;;15.51;100.00
10145;BME280;5113;41.822;23.564;2022-09-03T03:33:57;-11366.50;;;15.61;100.00
10145;BME280;5113;41.822;23.564;2022-09-03T03:37:05;-11364.53;;;15.54;100.00
10145;BME280;5113;41.822;23.564;2022-09-03T03:40:11;-11368.75;;;15.69;100.00
10145;BME280;5113;41.822;23.564;2022-09-03T03:43:19;-11364.81;;;15.55;100.00
10145;BME280;5113;41.822;23.564;2022-09-03T03:46:28;-11366.38;;;15.61;100.00
10145;BME280;5113;41.822;23.564;2022-09-03T03:49:35;-11370.88;;;15.77;100.00
10145;BME280;5113;41.822;23.564;2022-09-03T03:52:42;-11374.13;;;15.89;100.00
10145;BME280;5113;41.822;23.564;2022-09-03T03:55:55;-11375.81;;;15.95;100.00
10145;BME280;5113;41.822;23.564;2022-09-03T03:59:02;-11378.19;;;16.03;100.00
10145;BME280;5113;41.822;23.564;2022-09-03T04:02:09;-11368.34;;;15.68;100.00
10145;BME280;5113;41.822;23.564;2022-09-03T04:05:16;-11365.66;;;15.58;100.00
10145;BME280;5113;41.822;23.564;2022-09-03T04:08:28;-11374.97;;;15.92;100.00
10145;BME280;5113;41.822;23.564;2022-09-03T04:11:34;-11381.44;;;16.15;100.00
10145;BME280;5113;41.822;23.564;2022-09-03T04:14:40;-11377.50;;;16.01;100.00
10145;BME280;5113;41.822;23.564;2022-09-03T04:17:47;-11377.78;;;16.02;100.00
10145;BME280;5113;41.822;23.564;2022-09-03T04:20:58;-11367.91;;;15.66;100.00
10145;BME280;5113;41.822;23.564;2022-09-03T04:24:06;-11374.69;;;15.91;100.00
10145;BME280;5113;41.822;23.564;2022-09-03T04:27:12;-11375.81;;;15.95;100.00
10145;BME280;5113;41.822;23.564;2022-09-03T04:30:19;-11376.22;;;15.96;100.00
10145;BME280;5113;41.822;23.564;2022-09-03T04:33:26;-11382.44;;;16.18;100.00
10145;BME280;5113;41.822;23.564;2022-09-03T04:36:32;-11382.56;;;16.19;100.00
10145;BME280;5113;41.822;23.564;2022-09-03T04:39:40;-11385.53;;;16.30;100.00
10145;BME280;5113;41.822;23.564;2022-09-03T04:42:46;-11385.09;;;16.28;100.00
10145;BME280;5113;41.822;23.564;2022-09-03T04:45:55;-11387.06;;;16.35;100.00
10145;BME280;5113;41.822;23.564;2022-09-03T04:49:03;-11380.88;;;16.13;100.00
10145;BME280;5113;41.822;23.564;2022-09-03T04:52:10;-11385.09;;;16.28;100.00
10145;BME280;5113;41.822;23.564;2022-09-03T04:55:18;-11383.41;;;16.22;100.00
10145;BME280;5113;41.822;23.564;2022-09-03T04:58:24;-11389.34;;;16.43;100.00
10145;BME280;5113;41.822;23.564;2022-09-03T05:01:33;-11391.59;;;16.51;100.00
10145;BME280;5113;41.822;23.564;2022-09-03T05:04:39;-11400.75;;;16.84;100.00
10145;BME280;5113;41.822;23.564;2022-09-03T05:07:45;-11399.06;;;16.78;100.00
10145;BME280;5113;41.822;23.564;2022-09-03T05:10:58;-11401.31;;;16.87;100.00
10145;BME280;5113;41.822;23.564;2022-09-03T05:14:05;-11401.03;;;16.86;100.00
10145;BME280;5113;41.822;23.564;2022-09-03T05:17:15;-11400.59;;;16.84;100.00
10145;BME280;5113;41.822;23.564;2022-09-03T05:20:21;-11405.81;;;17.03;100.00
10145;BME280;5113;41.822;23.564;2022-09-03T05:23:29;-11402.56;;;16.91;100.00
10145;BME280;5113;41.822;23.564;2022-09-03T05:26:42;-11402.16;;;16.90;100.00
10145;BME280;5113;41.822;23.564;2022-09-03T05:29:49;-11404.00;;;16.96;100.00
10145;BME280;5113;41.822;23.564;2022-09-03T05:32:55;-11411.59;;;17.24;100.00
10145;BME280;5113;41.822;23.564;2022-09-03T05:36:03;-11399.19;;;16.79;100.00
10145;BME280;5113;41.822;23.564;2022-09-03T05:39:10;-11408.50;;;17.12;100.00
10145;BME280;5113;41.822;23.564;2022-09-03T05:42:17;-11405.69;;;17.02;100.00
10145;BME280;5113;41.822;23.564;2022-09-03T05:45:24;-11411.19;;;17.22;100.00
10145;BME280;5113;41.822;23.564;2022-09-03T05:48:31;-11410.75;;;17.21;100.00
10145;BME280;5113;41.822;23.564;2022-09-03T05:51:38;-11417.66;;;17.45;100.00
10145;BME280;5113;41.822;23.564;2022-09-03T05:54:44;-11419.78;;;17.53;100.00
10145;BME280;5113;41.822;23.564;2022-09-03T05:57:53;-11418.38;;;17.48;100.00
10145;BME280;5113;41.822;23.564;2022-09-03T06:00:59;-11425.41;;;17.73;100.00
10145;BME280;5113;41.822;23.564;2022-09-03T06:04:07;-11425.97;;;17.75;100.00
10145;BME280;5113;41.822;23.564;2022-09-03T06:07:14;-11424.00;;;17.68;100.00
10145;BME280;5113;41.822;23.564;2022-09-03T06:10:20;-11425.97;;;17.75;100.00
10145;BME280;5113;41.822;23.564;2022-09-03T06:13:33;-11442.91;;;18.36;100.00
10145;BME280;5113;41.822;23.564;2022-09-03T06:16:41;-11443.03;;;18.37;100.00
10145;BME280;5113;41.822;23.564;2022-09-03T06:19:48;-11439.09;;;18.23;100.00
10145;BME280;5113;41.822;23.564;2022-09-03T06:22:54;-11446.97;;;18.51;100.00
10145;BME280;5113;41.822;23.564;2022-09-03T06:26:02;-11458.97;;;18.94;100.00
10145;BME280;5113;41.822;23.564;2022-09-03T06:29:11;-11458.13;;;18.91;100.00
10145;BME280;5113;41.822;23.564;2022-09-03T06:32:18;-11463.19;;;19.09;100.00
10145;BME280;5113;41.822;23.564;2022-09-03T06:35:24;-11470.94;;;19.37;100.00
10145;BME280;5113;41.822;23.564;2022-09-03T06:38:34;-11474.19;;;19.49;100.00
10145;BME280;5113;41.822;23.564;2022-09-03T06:41:40;-11485.47;;;19.90;100.00
10145;BME280;5113;41.822;23.564;2022-09-03T06:44:48;-11489.28;;;20.03;100.00
10145;BME280;5113;41.822;23.564;2022-09-03T06:47:56;-11495.91;;;20.27;100.00
10145;BME280;5113;41.822;23.564;2022-09-03T06:51:03;-11500.28;;;20.43;100.00
10145;BME280;5113;41.822;23.564;2022-09-03T06:54:11;-11480.97;;;19.73;100.00
10145;BME280;5113;41.822;23.564;2022-09-03T06:57:19;-11487.88;;;19.98;100.00
10145;BME280;5113;41.822;23.564;2022-09-03T07:03:54;-11473.34;;;19.46;100.00
10145;BME280;5113;41.822;23.564;2022-09-03T07:07:01;-11471.37;;;19.39;100.00
10145;BME280;5113;41.822;23.564;2022-09-03T07:10:07;-11476.47;;;19.57;100.00
10145;BME280;5113;41.822;23.564;2022-09-03T07:13:17;-11476.75;;;19.58;100.00
10145;BME280;5113;41.822;23.564;2022-09-03T07:16:26;-11476.47;;;19.57;100.00
10145;BME280;5113;41.822;23.564;2022-09-03T07:19:32;-11477.88;;;19.62;100.00
10145;BME280;5113;41.822;23.564;2022-09-03T07:22:38;-11478.72;;;19.65;100.00
10145;BME280;5113;41.822;23.564;2022-09-03T07:25:52;-11480.13;;;19.70;100.00
10145;BME280;5113;41.822;23.564;2022-09-03T07:28:59;-11490.97;;;20.09;100.00
10145;BME280;5113;41.822;23.564;2022-09-03T07:32:07;-11483.50;;;19.83;100.00
10145;BME280;5113;41.822;23.564;2022-09-03T07:35:13;-11491.81;;;20.13;100.00
10145;BME280;5113;41.822;23.564;2022-09-03T07:38:20;-11506.50;;;20.65;100.00
10145;BME280;5113;41.822;23.564;2022-09-03T07:41:28;-11493.53;;;20.19;100.00
10145;BME280;5113;41.822;23.564;2022-09-03T07:44:37;-11513.41;;;20.90;100.00
10145;BME280;5113;41.822;23.564;2022-09-03T07:47:48;-11510.44;;;20.80;100.00
10145;BME280;5113;41.822;23.564;2022-09-03T07:50:57;-11510.16;;;20.79;100.00
10145;BME280;5113;41.822;23.564;2022-09-03T07:54:06;-11532.31;;;21.58;100.00
10145;BME280;5113;41.822;23.564;2022-09-03T07:57:15;-11520.75;;;21.17;100.00
10145;BME280;5113;41.822;23.564;2022-09-03T08:00:21;-11545.16;;;22.04;100.00
10145;BME280;5113;41.822;23.564;2022-09-03T08:03:29;-11541.50;;;21.91;100.00
10145;BME280;5113;41.822;23.564;2022-09-03T08:06:36;-11549.81;;;22.21;100.00
10145;BME280;5113;41.822;23.564;2022-09-03T08:09:43;-11543.88;;;22.00;100.00
10145;BME280;5113;41.822;23.564;2022-09-03T08:12:50;-11554.19;;;22.37;100.00
10145;BME280;5113;41.822;23.564;2022-09-03T08:15:56;-11554.06;;;22.36;100.00
10145;BME280;5113;41.822;23.564;2022-09-03T08:19:05;-11564.50;;;22.74;98.35
10145;BME280;5113;41.822;23.564;2022-09-03T08:22:12;-11554.63;;;22.38;99.30
10145;BME280;5113;41.822;23.564;2022-09-03T08:25:19;-11563.91;;;22.72;94.73
10145;BME280;5113;41.822;23.564;2022-09-03T08:28:25;-11574.09;;;23.09;96.45
10145;BME280;5113;41.822;23.564;2022-09-03T08:31:32;-11593.56;;;23.79;91.80
10145;BME280;5113;41.822;23.564;2022-09-03T08:34:42;-11574.66;;;23.11;91.55
10145;BME280;5113;41.822;23.564;2022-09-03T08:37:49;-11579.16;;;23.27;89.27
10145;BME280;5113;41.822;23.564;2022-09-03T08:41:06;-11602.03;;;24.09;83.58
10145;BME280;5113;41.822;23.564;2022-09-03T08:44:21;-11601.03;;;24.06;86.23
10145;BME280;5113;41.822;23.564;2022-09-03T08:47:31;-11597.81;;;23.94;85.37
10145;BME280;5113;41.822;23.564;2022-09-03T08:50:43;-11589.91;;;23.65;87.33
10145;BME280;5113;41.822;23.564;2022-09-03T08:53:51;-11579.59;;;23.28;88.25
10145;BME280;5113;41.822;23.564;2022-09-03T08:57:02;-11593.84;;;23.80;85.67
10145;BME280;5113;41.822;23.564;2022-09-03T09:00:10;-11594.28;;;23.81;85.87
10145;BME280;5113;41.822;23.564;2022-09-03T09:03:40;-11594.13;;;23.81;86.15
10145;BME280;5113;41.822;23.564;2022-09-03T09:06:53;-11583.97;;;23.44;87.70
10145;BME280;5113;41.822;23.564;2022-09-03T09:10:08;-11592.44;;;23.75;87.80
10145;BME280;5113;41.822;23.564;2022-09-03T09:13:23;-11565.34;;;22.77;90.43
10145;BME280;5113;41.822;23.564;2022-09-03T09:16:39;-11573.53;;;23.07;88.92
10145;BME280;5113;41.822;23.564;2022-09-03T09:19:57;-11570.13;;;22.94;88.04
10145;BME280;5113;41.822;23.564;2022-09-03T09:23:12;-11576.91;;;23.19;90.09
10145;BME280;5113;41.822;23.564;2022-09-03T09:26:20;-11601.91;;;24.09;84.69
10145;BME280;5113;41.822;23.564;2022-09-03T09:29:30;-11585.09;;;23.48;86.10
10145;BME280;5113;41.822;23.564;2022-09-03T09:32:37;-11601.34;;;24.07;83.57
10145;BME280;5113;41.822;23.564;2022-09-03T09:35:43;-11602.59;;;24.11;82.68
10145;BME280;5113;41.822;23.564;2022-09-03T09:38:51;-11589.19;;;23.63;84.02
10145;BME280;5113;41.822;23.564;2022-09-03T09:41:58;-11608.25;;;24.31;81.29
10145;BME280;5113;41.822;23.564;2022-09-03T09:45:08;-11617.00;;;24.63;81.62
10145;BME280;5113;41.822;23.564;2022-09-03T09:48:21;-11589.91;;;23.65;85.77
10145;BME280;5113;41.822;23.564;2022-09-03T09:51:30;-11610.22;;;24.39;81.13
10145;BME280;5113;41.822;23.564;2022-09-03T09:54:40;-11612.34;;;24.46;80.24
10145;BME280;5113;41.822;23.564;2022-09-03T09:57:52;-11616.28;;;24.60;78.26
10145;BME280;5113;41.822;23.564;2022-09-03T10:01:00;-11620.66;;;24.76;77.21
10145;BME280;5113;41.822;23.564;2022-09-03T10:04:10;-11613.75;;;24.51;76.30
10145;BME280;5113;41.822;23.564;2022-09-03T10:07:23;-11623.50;;;24.86;76.70
10145;BME280;5113;41.822;23.564;2022-09-03T10:10:33;-11600.91;;;24.05;81.36
10145;BME280;5113;41.822;23.564;2022-09-03T10:13:43;-11616.72;;;24.62;75.86
10145;BME280;5113;41.822;23.564;2022-09-03T10:16:56;-11599.06;;;23.98;80.26
10145;BME280;5113;41.822;23.564;2022-09-03T10:20:11;-11578.59;;;23.25;84.29
10145;BME280;5113;41.822;23.564;2022-09-03T10:23:45;-11601.19;;;24.06;80.41
10145;BME280;5113;41.822;23.564;2022-09-03T10:26:55;-11607.69;;;24.29;80.20
10145;BME280;5113;41.822;23.564;2022-09-03T10:30:03;-11618.41;;;24.68;78.44
10145;BME280;5113;41.822;23.564;2022-09-03T10:33:15;-11592.72;;;23.76;81.07
10145;BME280;5113;41.822;23.564;2022-09-03T10:36:25;-11614.19;;;24.53;78.51
10145;BME280;5113;41.822;23.564;2022-09-03T10:39:40;-11596.38;;;23.89;80.57
10145;BME280;5113;41.822;23.564;2022-09-03T10:43:09;-11594.00;;;23.80;79.84
10145;BME280;5113;41.822;23.564;2022-09-03T10:46:25;-11615.59;;;24.58;76.97
10145;BME280;5113;41.822;23.564;2022-09-03T10:49:42;-11617.16;;;24.63;78.17
10145;BME280;5113;41.822;23.564;2022-09-03T10:53:06;-11616.16;;;24.60;73.69
10145;BME280;5113;41.822;23.564;2022-09-03T10:56:18;-11599.22;;;23.99;77.05
10145;BME280;5113;41.822;23.564;2022-09-03T10:59:41;-11613.63;;;24.51;75.36
10145;BME280;5113;41.822;23.564;2022-09-03T11:03:15;-11646.38;;;25.69;67.13
10145;BME280;5113;41.822;23.564;2022-09-03T11:06:28;-11653.84;;;25.95;67.76
10145;BME280;5113;41.822;23.564;2022-09-03T11:09:38;-11645.81;;;25.66;68.56
10145;BME280;5113;41.822;23.564;2022-09-03T11:12:49;-11612.47;;;24.47;69.58
10145;BME280;5113;41.822;23.564;2022-09-03T11:16:05;-11605.72;;;24.22;73.15
10145;BME280;5113;41.822;23.564;2022-09-03T11:19:18;-11630.41;;;25.11;67.68
10145;BME280;5113;41.822;23.564;2022-09-03T11:22:26;-11650.88;;;25.85;65.04
10145;BME280;5113;41.822;23.564;2022-09-03T11:25:35;-11654.84;;;25.99;63.34
10145;BME280;5113;41.822;23.564;2022-09-03T11:28:49;-11628.56;;;25.05;65.37
10145;BME280;5113;41.822;23.564;2022-09-03T11:32:04;-11649.91;;;25.81;64.38
10145;BME280;5113;41.822;23.564;2022-09-03T11:35:22;-11651.75;;;25.88;63.21
10145;BME280;5113;41.822;23.564;2022-09-03T11:38:29;-11663.44;;;26.30;61.79
10145;BME280;5113;41.822;23.564;2022-09-03T11:41:36;-11656.81;;;26.06;62.01
10145;BME280;5113;41.822;23.564;2022-09-03T11:44:44;-11646.38;;;25.69;62.35
10145;BME280;5113;41.822;23.564;2022-09-03T11:47:57;-11655.97;;;26.03;60.08
10145;BME280;5113;41.822;23.564;2022-09-03T11:51:03;-11655.69;;;26.02;63.20
10145;BME280;5113;41.822;23.564;2022-09-03T11:54:25;-11655.81;;;26.03;63.79
10145;BME280;5113;41.822;23.564;2022-09-03T11:57:32;-11652.16;;;25.89;61.36
10145;BME280;5113;41.822;23.564;2022-09-03T12:00:45;-11654.00;;;25.96;60.64
10145;BME280;5113;41.822;23.564;2022-09-03T12:04:00;-11657.94;;;26.10;61.12
10145;BME280;5113;41.822;23.564;2022-09-03T12:07:28;-11638.75;;;25.41;62.96
10145;BME280;5113;41.822;23.564;2022-09-03T12:10:50;-11673.47;;;26.66;60.12
10145;BME280;5113;41.822;23.564;2022-09-03T12:14:02;-11649.75;;;25.81;62.96
10145;BME280;5113;41.822;23.564;2022-09-03T12:17:24;-11641.28;;;25.50;64.44
10145;BME280;5113;41.822;23.564;2022-09-03T12:20:35;-11640.72;;;25.48;63.61
10145;BME280;5113;41.822;23.564;2022-09-03T12:23:43;-11638.47;;;25.40;63.34
10145;BME280;5113;41.822;23.564;2022-09-03T12:26:49;-11641.41;;;25.51;61.56
10145;BME280;5113;41.822;23.564;2022-09-03T12:29:57;-11636.78;;;25.34;64.25
10145;BME280;5113;41.822;23.564;2022-09-03T12:33:05;-11659.50;;;26.16;62.94
10145;BME280;5113;41.822;23.564;2022-09-03T12:36:13;-11663.59;;;26.30;59.76
10145;BME280;5113;41.822;23.564;2022-09-03T12:39:21;-11656.53;;;26.05;60.85
10145;BME280;5113;41.822;23.564;2022-09-03T12:42:49;-11652.03;;;25.89;61.22
10145;BME280;5113;41.822;23.564;2022-09-03T12:45:56;-11674.31;;;26.69;60.24
10145;BME280;5113;41.822;23.564;2022-09-03T12:49:17;-11657.94;;;26.10;59.61
10145;BME280;5113;41.822;23.564;2022-09-03T12:52:44;-11659.34;;;26.15;58.94
10145;BME280;5113;41.822;23.564;2022-09-03T12:55:53;-11657.94;;;26.10;58.42
10145;BME280;5113;41.822;23.564;2022-09-03T12:59:04;-11658.22;;;26.11;57.75
10145;BME280;5113;41.822;23.564;2022-09-03T13:02:16;-11648.22;;;25.75;58.91
10145;BME280;5113;41.822;23.564;2022-09-03T13:05:29;-11662.47;;;26.26;58.59
10145;BME280;5113;41.822;23.564;2022-09-03T13:08:43;-11655.13;;;26.00;57.99
10145;BME280;5113;41.822;23.564;2022-09-03T13:11:50;-11667.69;;;26.45;57.91
10145;BME280;5113;41.822;23.564;2022-09-03T13:15:05;-11655.81;;;26.03;58.60
10145;BME280;5113;41.822;23.564;2022-09-03T13:18:19;-11661.19;;;26.22;57.78
10145;BME280;5113;41.822;23.564;2022-09-03T13:21:38;-11663.03;;;26.28;56.97
10145;BME280;5113;41.822;23.564;2022-09-03T13:25:15;-11663.88;;;26.31;57.25
10145;BME280;5113;41.822;23.564;2022-09-03T13:28:34;-11668.69;;;26.49;55.96
10145;BME280;5113;41.822;23.564;2022-09-03T13:31:48;-11667.69;;;26.45;55.54
10145;BME280;5113;41.822;23.564;2022-09-03T13:34:58;-11652.31;;;25.90;56.22
10145;BME280;5113;41.822;23.564;2022-09-03T13:38:13;-11655.25;;;26.00;57.73
10145;BME280;5113;41.822;23.564;2022-09-03T13:41:34;-11657.09;;;26.07;55.72
10145;BME280;5113;41.822;23.564;2022-09-03T13:44:46;-11661.34;;;26.22;55.64
10145;BME280;5113;41.822;23.564;2022-09-03T13:47:57;-11668.13;;;26.47;55.78
10145;BME280;5113;41.822;23.564;2022-09-03T13:51:25;-11670.25;;;26.54;54.95
10145;BME280;5113;41.822;23.564;2022-09-03T13:54:35;-11654.41;;;25.97;56.13
10145;BME280;5113;41.822;23.564;2022-09-03T13:57:56;-11660.34;;;26.19;55.25
10145;BME280;5113;41.822;23.564;2022-09-03T14:01:12;-11658.94;;;26.14;55.36
10145;BME280;5113;41.822;23.564;2022-09-03T14:04:28;-11639.03;;;25.42;56.89
10145;BME280;5113;41.822;23.564;2022-09-03T14:07:57;-11645.25;;;25.64;56.95
10145;BME280;5113;41.822;23.564;2022-09-03T14:11:18;-11668.97;;;26.50;55.66
10145;BME280;5113;41.822;23.564;2022-09-03T14:14:37;-11649.75;;;25.81;56.38
10145;BME280;5113;41.822;23.564;2022-09-03T14:17:51;-11648.22;;;25.75;56.27
10145;BME280;5113;41.822;23.564;2022-09-03T14:21:02;-11655.13;;;26.00;56.30
10145;BME280;5113;41.822;23.564;2022-09-03T14:24:13;-11662.59;;;26.27;54.81
10145;BME280;5113;41.822;23.564;2022-09-03T14:27:23;-11667.84;;;26.46;55.26
10145;BME280;5113;41.822;23.564;2022-09-03T14:30:40;-11654.00;;;25.96;55.43
10145;BME280;5113;41.822;23.564;2022-09-03T14:33:56;-11662.75;;;26.27;54.85
10145;BME280;5113;41.822;23.564;2022-09-03T14:37:08;-11665.00;;;26.36;53.73
10145;BME280;5113;41.822;23.564;2022-09-03T14:40:24;-11672.91;;;26.64;54.78
10145;BME280;5113;41.822;23.564;2022-09-03T14:44:01;-11643.81;;;25.59;56.28
10145;BME280;5113;41.822;23.564;2022-09-03T14:47:22;-11656.81;;;26.06;56.22
10145;BME280;5113;41.822;23.564;2022-09-03T14:50:43;-11650.59;;;25.84;57.13
10145;BME280;5113;41.822;23.564;2022-09-03T14:54:24;-11679.13;;;26.86;54.82
10145;BME280;5113;41.822;23.564;2022-09-03T14:57:46;-11687.03;;;27.15;51.83
10145;BME280;5113;41.822;23.564;2022-09-03T15:00:59;-11637.06;;;25.35;56.76
10145;BME280;5113;41.822;23.564;2022-09-03T15:04:36;-11625.19;;;24.92;57.89
10145;BME280;5113;41.822;23.564;2022-09-03T15:07:48;-11628.00;;;25.02;58.14
10145;BME280;5113;41.822;23.564;2022-09-03T15:10:59;-11629.44;;;25.08;58.22
10145;BME280;5113;41.822;23.564;2022-09-03T15:14:12;-11606.84;;;24.26;62.60
10145;BME280;5113;41.822;23.564;2022-09-03T15:17:29;-11618.97;;;24.70;62.31
10145;BME280;5113;41.822;23.564;2022-09-03T15:20:48;-11617.28;;;24.64;62.83
10145;BME280;5113;41.822;23.564;2022-09-03T15:24:01;-11612.91;;;24.48;63.23
10145;BME280;5113;41.822;23.564;2022-09-03T15:27:31;-11606.00;;;24.23;64.68
10145;BME280;5113;41.822;23.564;2022-09-03T15:30:44;-11608.38;;;24.32;64.27
10145;BME280;5113;41.822;23.564;2022-09-03T15:34:00;-11604.16;;;24.17;65.44
10145;BME280;5113;41.822;23.564;2022-09-03T15:37:26;-11609.38;;;24.35;64.35
10145;BME280;5113;41.822;23.564;2022-09-03T15:40:34;-11608.53;;;24.32;62.66
10145;BME280;5113;41.822;23.564;2022-09-03T15:43:47;-11601.63;;;24.08;63.96
10145;BME280;5113;41.822;23.564;2022-09-03T15:46:58;-11598.50;;;23.96;63.76
10145;BME280;5113;41.822;23.564;2022-09-03T15:50:14;-11595.81;;;23.87;65.43
10145;BME280;5113;41.822;23.564;2022-09-03T15:53:32;-11599.50;;;24.00;65.72
10145;BME280;5113;41.822;23.564;2022-09-03T15:56:45;-11592.44;;;23.75;63.83
10145;BME280;5113;41.822;23.564;2022-09-03T15:59:58;-11590.19;;;23.66;64.37
10145;BME280;5113;41.822;23.564;2022-09-03T16:03:09;-11592.00;;;23.73;62.69
10145;BME280;5113;41.822;23.564;2022-09-03T16:06:31;-11589.75;;;23.65;63.56
10145;BME280;5113;41.822;23.564;2022-09-03T16:09:52;-11584.81;;;23.47;65.24
10145;BME280;5113;41.822;23.564;2022-09-03T16:13:31;-11579.44;;;23.28;67.13
10145;BME280;5113;41.822;23.564;2022-09-03T16:16:52;-11567.59;;;22.85;70.34
10145;BME280;5113;41.822;23.564;2022-09-03T16:20:03;-11571.84;;;23.00;69.03
10145;BME280;5113;41.822;23.564;2022-09-03T16:23:15;-11562.22;;;22.66;71.72
10145;BME280;5113;41.822;23.564;2022-09-03T16:26:28;-11562.22;;;22.66;72.22
10145;BME280;5113;41.822;23.564;2022-09-03T16:29:38;-11561.94;;;22.65;71.85
10145;BME280;5113;41.822;23.564;2022-09-03T16:32:58;-11554.06;;;22.36;74.91
10145;BME280;5113;41.822;23.564;2022-09-03T16:36:24;-11551.78;;;22.28;76.27
10145;BME280;5113;41.822;23.564;2022-09-03T16:39:45;-11551.78;;;22.28;76.17
10145;BME280;5113;41.822;23.564;2022-09-03T16:43:02;-11546.28;;;22.08;77.63
10145;BME280;5113;41.822;23.564;2022-09-03T16:46:35;-11547.00;;;22.11;76.17